Time;durP1;ratioP1;P1;durP2;ratioP2;P2;SDS_P1;SDS_P2;PMS_P1;PMS_P2;Temp;Humidity;BMP_temperature;BMP_pressure;BME280_temperature;BME280_humidity;BME280_pressure;Samples;Min_cycle;Max_cycle;Signal;HPM_P1;HPM_P2
2021/01/06 00:00:57;;;;;;;9.20;6.85;;;2.70;92.90;;;;;;4968452;28;20484;-89
2021/01/06 00:03:25;;;;;;;9.63;6.80;;;2.80;93.00;;;;;;4992872;28;20098;-88
2021/01/06 00:06:13;;;;;;;8.02;6.07;;;2.80;92.80;;;;;;4968573;28;20118;-88
2021/01/06 00:08:42;;;;;;;8.68;6.53;;;2.70;92.80;;;;;;4993535;28;20101;-87
2021/01/06 00:11:08;;;;;;;9.63;6.57;;;2.70;93.00;;;;;;4988091;28;20470;-88
2021/01/06 00:13:34;;;;;;;9.85;5.88;;;2.70;93.10;;;;;;4991369;28;20080;-88
2021/01/06 00:16:00;;;;;;;9.95;5.60;;;2.70;93.10;;;;;;4984824;28;20137;-87
2021/01/06 00:18:27;;;;;;;9.85;6.68;;;2.70;93.00;;;;;;4988982;28;20073;-86
2021/01/06 00:20:56;;;;;;;9.23;6.45;;;2.70;93.10;;;;;;4972396;28;20045;-91
2021/01/06 00:23:22;;;;;;;11.15;6.90;;;2.70;93.20;;;;;;4990387;28;20316;-89
2021/01/06 00:25:48;;;;;;;9.88;7.10;;;2.60;93.20;;;;;;4972156;28;20034;-88
2021/01/06 00:28:17;;;;;;;11.60;6.57;;;2.70;93.10;;;;;;4988586;28;20030;-88
2021/01/06 00:30:56;;;;;;;9.15;6.43;;;2.70;93.10;;;;;;4988002;28;20406;-86
2021/01/06 00:33:24;;;;;;;10.60;6.88;;;2.70;93.00;;;;;;4975489;28;20042;-88
2021/01/06 00:35:55;;;;;;;9.38;6.28;;;2.70;93.00;;;;;;4992563;28;20062;-88
2021/01/06 00:38:21;;;;;;;9.88;6.50;;;2.70;93.00;;;;;;4990317;28;20030;-85
2021/01/06 00:40:47;;;;;;;8.73;5.80;;;2.70;93.00;;;;;;4988929;28;20036;-88
2021/01/06 00:43:15;;;;;;;9.50;6.05;;;2.70;93.10;;;;;;4991226;28;20073;-90
2021/01/06 00:45:41;;;;;;;8.45;5.93;;;2.70;93.10;;;;;;4990700;28;20062;-89
2021/01/06 00:48:07;;;;;;;8.32;5.70;;;2.70;93.00;;;;;;4990070;28;20235;-88
2021/01/06 00:50:33;;;;;;;9.50;6.18;;;2.70;93.00;;;;;;4971648;28;20041;-89
2021/01/06 00:53:05;;;;;;;9.05;5.53;;;2.70;93.00;;;;;;4973722;28;20397;-88
2021/01/06 00:55:31;;;;;;;9.07;6.32;;;2.70;93.00;;;;;;4991847;28;20046;-87
2021/01/06 00:57:57;;;;;;;8.80;5.90;;;2.70;93.10;;;;;;4992095;28;20446;-90
2021/01/06 01:00:25;;;;;;;9.35;6.18;;;2.70;93.10;;;;;;4990558;28;20109;-87
2021/01/06 01:02:51;;;;;;;9.35;5.95;;;2.80;93.10;;;;;;4975268;28;20464;-91
2021/01/06 01:05:21;;;;;;;8.57;6.13;;;2.80;93.00;;;;;;4986312;28;20106;-86
2021/01/06 01:07:48;;;;;;;8.43;5.43;;;2.70;93.00;;;;;;4988515;28;20027;-88
2021/01/06 01:10:55;;;;;;;9.73;6.55;;;2.80;93.10;;;;;;4990664;28;20048;-87
2021/01/06 01:13:23;;;;;;;9.48;6.20;;;2.80;93.00;;;;;;4927408;29;21536;-89
2021/01/06 01:15:51;;;;;;;9.38;6.50;;;2.80;92.90;;;;;;4932615;29;20034;-86
2021/01/06 01:18:19;;;;;;;8.85;5.97;;;2.80;92.90;;;;;;4932447;29;20491;-87
2021/01/06 01:20:48;;;;;;;9.38;6.90;;;2.80;93.00;;;;;;4930977;29;20077;-88
2021/01/06 01:23:16;;;;;;;9.38;6.35;;;2.80;92.90;;;;;;4935706;29;20070;-88
2021/01/06 01:25:42;;;;;;;8.55;5.80;;;2.80;92.90;;;;;;4935995;29;20023;-89
2021/01/06 01:28:08;;;;;;;8.95;6.55;;;2.70;92.90;;;;;;4933628;29;20043;-87
2021/01/06 01:30:33;;;;;;;9.38;6.40;;;2.80;93.00;;;;;;4933881;29;20552;-88
2021/01/06 01:32:59;;;;;;;8.00;6.22;;;2.80;92.80;;;;;;4933716;29;20031;-87
2021/01/06 01:35:28;;;;;;;8.88;6.55;;;2.80;92.80;;;;;;4934453;29;20043;-89
2021/01/06 01:37:56;;;;;;;8.65;6.85;;;2.80;92.80;;;;;;4934974;29;20078;-86
2021/01/06 01:40:25;;;;;;;8.75;6.45;;;2.80;92.60;;;;;;4935139;29;20028;-88
2021/01/06 01:42:58;;;;;;;9.37;5.87;;;2.80;92.70;;;;;;4931879;28;20036;-87
2021/01/06 01:45:31;;;;;;;9.38;6.85;;;2.80;92.70;;;;;;4991947;28;20034;-88
2021/01/06 01:48:30;;;;;;;11.80;7.25;;;2.70;92.80;;;;;;4990750;28;20029;-88
2021/01/06 01:51:01;;;;;;;9.93;6.72;;;2.70;92.80;;;;;;4989438;28;20053;-89
2021/01/06 01:53:55;;;;;;;10.73;7.30;;;2.70;92.90;;;;;;4973417;28;20494;-87
2021/01/06 01:56:24;;;;;;;12.77;7.57;;;2.70;93.00;;;;;;4982853;28;20460;-88
2021/01/06 01:58:53;;;;;;;12.55;8.55;;;2.70;93.00;;;;;;4991052;28;20025;-90
2021/01/06 02:01:20;;;;;;;12.38;7.68;;;2.70;93.00;;;;;;4991490;28;20055;-88
2021/01/06 02:04:05;;;;;;;11.70;7.35;;;2.70;93.10;;;;;;4988837;28;20018;-88
2021/01/06 02:06:37;;;;;;;10.13;6.97;;;2.70;93.10;;;;;;4991544;28;20065;-88
2021/01/06 02:09:31;;;;;;;11.60;6.95;;;2.80;93.00;;;;;;4990827;28;20033;-87
2021/01/06 02:12:13;;;;;;;9.57;6.47;;;2.80;93.10;;;;;;4983436;28;20054;-89
2021/01/06 02:14:50;;;;;;;11.32;7.60;;;2.80;93.10;;;;;;4973847;28;20034;-89
2021/01/06 02:17:16;;;;;;;13.18;8.07;;;2.80;93.10;;;;;;4989548;28;20062;-87
2021/01/06 02:19:46;;;;;;;9.60;6.88;;;2.80;93.10;;;;;;4989446;28;20465;-89
2021/01/06 02:22:19;;;;;;;10.38;7.75;;;2.80;93.10;;;;;;4990883;28;20100;-89
2021/01/06 02:24:48;;;;;;;10.05;6.85;;;2.80;93.20;;;;;;4975175;28;20413;-88
2021/01/06 02:27:15;;;;;;;10.32;8.05;;;2.90;93.10;;;;;;4982691;28;20122;-88
2021/01/06 02:29:41;;;;;;;12.10;7.80;;;2.80;93.10;;;;;;4985472;28;20027;-88
2021/01/06 02:32:08;;;;;;;11.43;8.73;;;2.90;93.10;;;;;;4985280;28;20033;-89
2021/01/06 02:34:39;;;;;;;12.10;8.82;;;2.90;93.10;;;;;;4978795;28;20023;-88
2021/01/06 02:37:06;;;;;;;13.85;9.65;;;2.90;93.20;;;;;;4989326;28;20030;-88
2021/01/06 02:39:32;;;;;;;12.23;8.45;;;2.90;93.20;;;;;;4990778;28;20078;-89
2021/01/06 02:41:58;;;;;;;14.95;9.38;;;2.90;93.30;;;;;;4983954;28;20449;-89
2021/01/06 02:44:23;;;;;;;14.90;9.23;;;2.90;93.30;;;;;;4971645;28;20026;-89
2021/01/06 02:46:50;;;;;;;13.13;9.32;;;2.90;93.30;;;;;;4989352;28;20034;-89
2021/01/06 02:49:16;;;;;;;15.95;9.52;;;2.90;93.40;;;;;;4971617;28;20034;-89
2021/01/06 02:51:50;;;;;;;17.92;10.13;;;3.00;93.30;;;;;;4989189;28;20045;-88
2021/01/06 02:54:43;;;;;;;15.70;9.90;;;3.00;93.20;;;;;;4978875;28;20106;-89
2021/01/06 02:57:10;;;;;;;16.80;9.98;;;3.10;93.10;;;;;;4991703;28;20077;-90
2021/01/06 02:59:44;;;;;;;15.07;10.65;;;3.10;93.20;;;;;;4987998;28;20616;-89
2021/01/06 03:02:15;;;;;;;15.48;11.20;;;3.10;93.00;;;;;;4988999;28;20073;-89
2021/01/06 03:04:48;;;;;;;16.27;10.15;;;3.10;93.10;;;;;;4972125;28;20421;-88
2021/01/06 03:07:16;;;;;;;16.15;11.45;;;3.10;93.20;;;;;;4989984;28;20023;-90
2021/01/06 03:09:43;;;;;;;18.00;11.52;;;3.10;93.20;;;;;;4958105;28;20019;-89
2021/01/06 03:12:29;;;;;;;15.65;10.80;;;3.10;93.20;;;;;;4983126;28;20502;-89
2021/01/06 03:14:56;;;;;;;19.38;12.10;;;3.10;92.90;;;;;;4990438;28;20469;-89
2021/01/06 03:17:23;;;;;;;18.33;11.52;;;3.10;93.10;;;;;;4993886;28;20022;-88
2021/01/06 03:19:54;;;;;;;15.50;11.20;;;3.20;92.90;;;;;;4994365;28;20022;-88
2021/01/06 03:22:23;;;;;;;17.48;11.50;;;3.10;92.90;;;;;;4992575;28;20482;-88
2021/01/06 03:24:56;;;;;;;17.50;12.27;;;3.10;93.00;;;;;;4985722;28;20027;-89
2021/01/06 03:27:23;;;;;;;16.85;12.20;;;3.10;93.00;;;;;;4993912;28;20103;-88
2021/01/06 03:29:50;;;;;;;16.63;11.63;;;3.10;92.90;;;;;;4991755;28;20110;-87
2021/01/06 03:32:37;;;;;;;18.15;12.25;;;3.10;93.00;;;;;;4991813;28;20026;-87
2021/01/06 03:35:13;;;;;;;16.63;11.25;;;3.10;92.90;;;;;;4991593;28;20544;-87
2021/01/06 03:37:45;;;;;;;18.75;12.80;;;3.10;92.90;;;;;;4990960;28;20026;-87
2021/01/06 03:40:39;;;;;;;18.45;12.85;;;3.10;93.00;;;;;;4987386;28;20050;-88
2021/01/06 03:43:07;;;;;;;23.25;13.68;;;3.10;93.00;;;;;;4979815;28;20033;-87
2021/01/06 03:45:37;;;;;;;21.40;13.85;;;3.10;93.00;;;;;;4992536;28;20041;-88
2021/01/06 03:48:05;;;;;;;21.95;14.57;;;3.10;93.10;;;;;;4992997;28;20037;-88
2021/01/06 03:50:45;;;;;;;20.42;13.55;;;3.10;93.10;;;;;;4991836;28;20152;-88
2021/01/06 03:53:20;;;;;;;22.67;13.45;;;3.10;93.10;;;;;;4991817;28;20030;-86
2021/01/06 03:55:59;;;;;;;23.63;14.88;;;3.10;93.30;;;;;;4991880;28;20029;-88
2021/01/06 03:58:28;;;;;;;21.60;14.25;;;3.10;93.10;;;;;;4992933;28;20076;-88
2021/01/06 04:01:09;;;;;;;24.40;15.43;;;3.10;93.20;;;;;;4991713;28;20479;-88
2021/01/06 04:03:58;;;;;;;24.30;15.52;;;3.10;93.10;;;;;;4993987;28;20023;-88
2021/01/06 04:06:25;;;;;;;25.45;16.85;;;3.10;93.30;;;;;;4992380;28;20026;-88
2021/01/06 04:08:55;;;;;;;27.50;17.65;;;3.10;93.20;;;;;;4975223;28;20061;-88
2021/01/06 04:11:31;;;;;;;25.35;16.98;;;3.20;93.30;;;;;;4975419;28;20478;-88
2021/01/06 04:13:57;;;;;;;24.45;16.02;;;3.20;93.10;;;;;;4989171;28;20106;-88
2021/01/06 04:16:24;;;;;;;24.55;15.57;;;3.10;93.10;;;;;;4991080;28;20122;-89
2021/01/06 04:18:50;;;;;;;24.27;16.52;;;3.10;93.10;;;;;;4991728;28;20029;-87
2021/01/06 04:21:15;;;;;;;25.98;16.73;;;3.10;93.20;;;;;;4993256;28;20034;-88
2021/01/06 04:23:41;;;;;;;25.35;17.17;;;3.20;93.30;;;;;;4990033;28;20107;-88
2021/01/06 04:26:09;;;;;;;24.70;17.30;;;3.20;93.40;;;;;;4990380;28;20081;-88
2021/01/06 04:28:36;;;;;;;25.75;16.73;;;3.20;93.10;;;;;;4991500;28;20552;-88
2021/01/06 04:31:06;;;;;;;27.67;17.05;;;3.20;93.20;;;;;;4974568;28;20069;-87
2021/01/06 04:33:37;;;;;;;;;;;3.20;93.10;;;;;;4993898;28;20026;-87
2021/01/06 04:36:07;;;;;;;24.23;16.05;;;3.30;93.20;;;;;;4993417;28;19916;-88
2021/01/06 04:38:36;;;;;;;23.85;15.30;;;3.30;93.10;;;;;;4989961;28;20022;-88
2021/01/06 04:41:29;;;;;;;22.63;15.25;;;3.30;93.10;;;;;;4987795;28;20363;-87
2021/01/06 04:44:22;;;;;;;22.42;14.77;;;3.30;92.90;;;;;;4990205;28;20493;-88
2021/01/06 04:46:48;;;;;;;23.05;15.70;;;3.30;93.00;;;;;;4988278;28;20033;-87
2021/01/06 04:49:38;;;;;;;23.23;15.00;;;3.30;92.90;;;;;;4973584;28;20030;-88
2021/01/06 04:52:31;;;;;;;23.33;15.02;;;3.30;92.80;;;;;;4985111;28;20046;-88
2021/01/06 04:54:57;;;;;;;24.17;16.30;;;3.30;92.90;;;;;;4984556;28;20486;-89
2021/01/06 04:57:48;;;;;;;22.50;14.70;;;3.30;92.70;;;;;;4992985;28;20084;-87
2021/01/06 05:00:30;;;;;;;24.00;16.10;;;3.30;92.90;;;;;;4990179;28;20046;-89
2021/01/06 05:03:21;;;;;;;23.33;15.43;;;3.30;93.00;;;;;;4988488;28;20027;-88
2021/01/06 05:05:54;;;;;;;19.98;13.95;;;3.30;93.00;;;;;;4990931;28;20038;-87
2021/01/06 05:08:40;;;;;;;23.40;15.07;;;3.30;93.00;;;;;;4988834;28;20065;-88
2021/01/06 05:11:37;;;;;;;21.30;14.45;;;3.30;93.10;;;;;;4971894;28;20030;-87
2021/01/06 05:14:15;;;;;;;20.88;14.55;;;3.20;93.00;;;;;;4989148;28;20463;-88
2021/01/06 05:16:44;;;;;;;22.67;15.15;;;3.30;93.00;;;;;;4964889;28;20135;-88
2021/01/06 05:19:33;;;;;;;23.33;14.65;;;3.30;92.90;;;;;;4984143;28;20034;-88
2021/01/06 05:22:00;;;;;;;20.92;14.20;;;3.30;92.90;;;;;;4976120;28;20146;-89
2021/01/06 05:24:55;;;;;;;21.63;14.10;;;3.40;92.70;;;;;;4991347;28;20042;-88
2021/01/06 05:27:25;;;;;;;20.25;14.18;;;3.30;92.80;;;;;;4959675;28;20047;-88
2021/01/06 05:30:00;;;;;;;23.10;14.25;;;3.30;92.80;;;;;;4989593;28;20505;-88
2021/01/06 05:32:39;;;;;;;22.08;14.40;;;3.40;92.60;;;;;;4969740;28;20027;-88
2021/01/06 05:35:10;;;;;;;22.77;14.70;;;3.40;92.50;;;;;;4988656;28;20084;-88
2021/01/06 05:37:36;;;;;;;24.30;15.48;;;3.40;92.60;;;;;;4986983;28;20617;-87
2021/01/06 05:40:13;;;;;;;22.90;15.35;;;3.40;92.70;;;;;;4989846;28;20057;-88
2021/01/06 05:42:50;;;;;;;21.60;14.63;;;3.30;92.70;;;;;;4972154;28;20516;-88
2021/01/06 05:45:18;;;;;;;21.88;15.05;;;3.30;92.60;;;;;;4987650;28;20030;-88
2021/01/06 05:48:06;;;;;;;22.63;14.00;;;3.30;92.60;;;;;;4989971;28;20105;-88
2021/01/06 05:50:38;;;;;;;26.33;15.75;;;3.30;92.60;;;;;;4989944;28;20045;-88
2021/01/06 05:53:19;;;;;;;22.48;13.98;;;3.30;92.70;;;;;;4988915;28;20076;-87
2021/01/06 05:55:48;;;;;;;21.80;14.75;;;3.30;92.80;;;;;;4987323;28;20034;-88
2021/01/06 05:58:36;;;;;;;21.50;15.32;;;3.30;92.80;;;;;;4988560;28;20026;-87
2021/01/06 06:01:27;;;;;;;24.27;15.35;;;3.30;92.70;;;;;;4964730;28;712971;-89
2021/01/06 06:04:07;;;;;;;25.30;15.70;;;3.30;92.60;;;;;;4984950;28;20018;-88
2021/01/06 06:07:05;;;;;;;25.65;14.43;;;3.30;92.70;;;;;;4988839;28;20053;-88
2021/01/06 06:10:06;;;;;;;21.60;14.27;;;3.30;92.80;;;;;;4911300;29;20040;-88
2021/01/06 06:12:52;;;;;;;23.13;14.93;;;3.30;92.70;;;;;;4911996;29;20426;-87
2021/01/06 06:15:20;;;;;;;20.88;14.35;;;3.30;92.70;;;;;;4911369;29;20059;-88
2021/01/06 06:18:10;;;;;;;23.08;14.23;;;3.30;92.50;;;;;;4912437;29;20039;-87
2021/01/06 06:20:44;;;;;;;20.80;13.90;;;3.30;92.50;;;;;;4911598;29;20076;-88
2021/01/06 06:23:31;;;;;;;23.30;13.40;;;3.30;92.50;;;;;;4894284;29;20189;-88
2021/01/06 06:26:04;;;;;;;21.10;13.73;;;3.30;92.50;;;;;;4911317;29;20051;-88
2021/01/06 06:28:39;;;;;;;19.50;13.77;;;3.30;92.40;;;;;;4907186;29;20032;-89
2021/01/06 06:31:17;;;;;;;21.90;14.52;;;3.30;92.40;;;;;;4912082;29;20043;-88
2021/01/06 06:33:43;;;;;;;20.30;14.68;;;3.30;92.30;;;;;;4900215;29;20032;-89
2021/01/06 06:36:18;;;;;;;20.80;13.55;;;3.30;92.50;;;;;;4913128;29;20055;-89
2021/01/06 06:38:46;;;;;;;22.35;14.15;;;3.30;92.40;;;;;;4911968;29;20056;-89
2021/01/06 06:41:34;;;;;;;19.92;13.75;;;3.40;92.20;;;;;;4910922;29;20056;-88
2021/01/06 06:44:32;;;;;;;20.27;14.23;;;3.30;92.20;;;;;;4912647;29;20099;-88
2021/01/06 06:47:08;;;;;;;22.17;13.73;;;3.40;92.00;;;;;;4962603;28;20039;-88
2021/01/06 06:49:43;;;;;;;24.05;14.95;;;3.30;92.20;;;;;;4986352;28;20026;-88
2021/01/06 06:52:15;;;;;;;21.92;14.15;;;3.30;92.10;;;;;;4987702;28;20046;-88
2021/01/06 06:55:07;;;;;;;20.25;14.20;;;3.30;92.50;;;;;;4990827;28;20160;-88
2021/01/06 06:58:02;;;;;;;20.70;14.82;;;3.30;92.40;;;;;;4985645;28;20042;-88
2021/01/06 07:00:29;;;;;;;20.45;13.88;;;3.30;92.30;;;;;;4987167;28;20745;-88
2021/01/06 07:03:01;;;;;;;24.20;14.43;;;3.30;92.20;;;;;;4985942;28;20030;-88
2021/01/06 07:05:37;;;;;;;24.30;14.27;;;3.40;92.10;;;;;;4989702;28;20097;-89
2021/01/06 07:08:12;;;;;;;21.27;14.05;;;3.40;92.10;;;;;;4987560;28;20026;-88
2021/01/06 07:10:45;;;;;;;24.35;15.18;;;3.50;92.10;;;;;;4988113;28;20576;-87
2021/01/06 07:13:19;;;;;;;22.05;14.93;;;3.50;91.90;;;;;;4988077;28;20035;-87
2021/01/06 07:15:49;;;;;;;20.60;14.45;;;3.50;91.70;;;;;;4981048;28;20100;-88
2021/01/06 07:18:21;;;;;;;21.80;15.00;;;3.50;91.80;;;;;;4991970;28;20026;-88
2021/01/06 07:20:47;;;;;;;22.52;14.73;;;3.60;91.60;;;;;;4972225;28;20038;-87
2021/01/06 07:23:22;;;;;;;25.05;15.55;;;3.60;91.90;;;;;;4973713;28;20038;-87
2021/01/06 07:26:01;;;;;;;24.00;15.57;;;3.50;92.00;;;;;;4987591;28;20049;-90
2021/01/06 07:28:28;;;;;;;24.00;14.73;;;3.50;92.20;;;;;;4981013;28;20023;-88
2021/01/06 07:30:54;;;;;;;23.75;15.27;;;3.50;92.00;;;;;;4984374;28;20487;-88
2021/01/06 07:33:37;;;;;;;23.02;15.30;;;3.50;91.90;;;;;;4987432;28;20026;-87
2021/01/06 07:36:33;;;;;;;22.10;14.10;;;3.50;92.20;;;;;;4991395;28;20034;-88
2021/01/06 07:39:00;;;;;;;23.40;15.30;;;3.50;92.10;;;;;;4977934;28;20171;-87
2021/01/06 07:41:28;;;;;;;23.50;14.73;;;3.50;92.10;;;;;;4990260;28;20038;-89
2021/01/06 07:44:21;;;;;;;21.30;14.98;;;3.50;92.10;;;;;;4987209;28;20058;-89
2021/01/06 07:46:53;;;;;;;23.77;15.05;;;3.50;92.20;;;;;;4982132;28;20030;-89
2021/01/06 07:49:39;;;;;;;21.27;14.55;;;3.50;92.20;;;;;;4989098;28;20030;-88
2021/01/06 07:52:42;;;;;;;23.75;15.45;;;3.60;92.10;;;;;;4990242;28;20046;-88
2021/01/06 07:55:32;;;;;;;22.98;16.27;;;3.60;92.00;;;;;;4978903;28;20045;-90
2021/01/06 07:58:18;;;;;;;25.55;16.55;;;3.60;92.00;;;;;;4988507;28;20030;-88
2021/01/06 08:00:57;;;;;;;24.55;16.05;;;3.60;92.20;;;;;;4987867;28;20042;-89
2021/01/06 08:03:45;;;;;;;25.65;17.73;;;3.60;92.10;;;;;;4993784;28;20030;-89
2021/01/06 08:06:10;;;;;;;23.40;16.05;;;3.60;92.00;;;;;;4989982;28;20058;-88
2021/01/06 08:08:46;;;;;;;25.52;17.33;;;3.60;92.20;;;;;;4990070;28;20026;-88
2021/01/06 08:11:14;;;;;;;28.17;17.35;;;3.60;92.10;;;;;;4992054;28;20038;-89
2021/01/06 08:14:01;;;;;;;25.23;16.70;;;3.60;92.20;;;;;;4991845;28;20121;-88
2021/01/06 08:16:30;;;;;;;27.25;17.10;;;3.60;92.10;;;;;;4993805;28;20114;-89
2021/01/06 08:19:15;;;;;;;27.02;17.40;;;3.60;92.00;;;;;;4991932;28;20026;-89
2021/01/06 08:21:48;;;;;;;27.77;16.83;;;3.60;92.10;;;;;;4979019;28;20500;-89
2021/01/06 08:24:24;;;;;;;27.50;17.50;;;3.60;92.10;;;;;;4991875;28;20022;-88
2021/01/06 08:26:50;;;;;;;25.83;17.00;;;3.70;92.30;;;;;;4993785;28;20026;-88
2021/01/06 08:29:30;;;;;;;25.23;16.15;;;3.70;92.40;;;;;;4992811;28;20030;-90
2021/01/06 08:32:22;;;;;;;25.70;16.67;;;3.60;92.30;;;;;;4991303;28;20035;-88
2021/01/06 08:35:03;;;;;;;26.00;17.42;;;3.70;92.20;;;;;;4985007;28;20058;-89
2021/01/06 08:37:34;;;;;;;28.05;18.63;;;3.70;92.10;;;;;;4975603;28;20033;-89
2021/01/06 08:40:03;;;;;;;29.75;17.52;;;3.70;92.10;;;;;;4995330;28;20026;-88
2021/01/06 08:42:45;;;;;;;26.38;17.17;;;3.70;92.20;;;;;;5001498;28;20081;-89
2021/01/06 08:45:27;;;;;;;25.50;16.83;;;3.80;92.30;;;;;;4991537;28;20029;-90
2021/01/06 08:47:53;;;;;;;27.20;17.88;;;3.80;92.10;;;;;;4992692;28;20069;-89
2021/01/06 08:50:26;;;;;;;27.63;18.48;;;3.80;92.00;;;;;;4974173;28;20108;-90
2021/01/06 08:52:59;;;;;;;25.67;17.02;;;3.80;92.20;;;;;;4992928;28;20117;-88
2021/01/06 08:55:39;;;;;;;26.98;17.40;;;3.90;92.00;;;;;;4976323;28;20030;-89
2021/01/06 08:58:16;;;;;;;25.57;16.80;;;4.00;91.90;;;;;;4989598;28;20030;-89
2021/01/06 09:00:50;;;;;;;26.73;17.58;;;4.10;91.40;;;;;;4977361;28;20293;-89
2021/01/06 09:03:28;;;;;;;23.52;16.50;;;4.10;91.50;;;;;;4990823;28;20037;-90
2021/01/06 09:06:12;;;;;;;25.25;17.38;;;4.10;91.70;;;;;;4991675;28;20022;-89
2021/01/06 09:08:38;;;;;;;28.13;18.38;;;4.10;91.70;;;;;;4992582;28;20026;-91
2021/01/06 09:11:16;;;;;;;24.92;17.80;;;4.10;91.60;;;;;;4990808;28;20128;-90
2021/01/06 09:14:11;;;;;;;26.52;17.23;;;4.10;91.50;;;;;;4991466;28;20014;-90
2021/01/06 09:16:49;;;;;;;26.58;17.40;;;4.10;91.70;;;;;;4975985;28;20050;-90
2021/01/06 09:19:43;;;;;;;25.75;17.95;;;4.10;91.70;;;;;;4976437;28;20037;-90
2021/01/06 09:22:11;;;;;;;27.00;17.75;;;4.20;91.70;;;;;;4975251;28;20052;-89
2021/01/06 09:24:39;;;;;;;27.27;19.52;;;4.10;91.60;;;;;;4974435;28;20062;-90
2021/01/06 09:27:23;;;;;;;29.40;18.23;;;4.10;91.70;;;;;;4993593;28;20030;-91
2021/01/06 09:29:50;;;;;;;27.00;17.95;;;4.20;91.40;;;;;;4976595;28;20037;-89
2021/01/06 09:32:23;;;;;;;28.80;20.38;;;4.20;91.20;;;;;;4990307;28;20034;-90
2021/01/06 09:34:58;;;;;;;29.23;20.30;;;4.30;91.30;;;;;;4974030;28;20014;-89
2021/01/06 09:37:29;;;;;;;29.77;18.50;;;4.30;91.30;;;;;;4984877;28;20030;-91
2021/01/06 09:40:04;;;;;;;25.70;17.77;;;4.30;91.20;;;;;;4980853;28;20478;-91
2021/01/06 09:42:31;;;;;;;29.23;18.58;;;4.30;91.10;;;;;;4992643;28;20026;-90
2021/01/06 09:44:57;;;;;;;27.58;19.13;;;4.30;91.20;;;;;;4992643;28;20046;-90
2021/01/06 09:47:27;;;;;;;29.50;20.10;;;4.30;91.30;;;;;;4989905;28;20097;-90
2021/01/06 09:50:00;;;;;;;33.65;21.25;;;4.20;91.20;;;;;;4992380;28;20045;-90
2021/01/06 09:52:35;;;;;;;30.23;20.10;;;4.30;91.30;;;;;;4992124;28;20027;-90
2021/01/06 09:55:04;;;;;;;31.70;19.35;;;4.20;91.40;;;;;;4974222;28;20027;-88
2021/01/06 09:57:31;;;;;;;28.83;19.52;;;4.20;91.40;;;;;;4991383;28;20132;-88
2021/01/06 10:00:08;;;;;;;27.83;18.58;;;4.30;91.50;;;;;;4971244;28;20058;-89
2021/01/06 10:02:36;;;;;;;27.35;18.92;;;4.30;91.50;;;;;;4990548;28;20026;-88
2021/01/06 10:05:38;;;;;;;32.67;19.92;;;4.30;91.30;;;;;;4989605;28;20042;-89
2021/01/06 10:08:25;;;;;;;30.55;18.63;;;4.30;91.50;;;;;;4951798;29;20031;-89
2021/01/06 10:10:57;;;;;;;28.02;18.17;;;4.40;91.30;;;;;;4951234;28;20043;-89
2021/01/06 10:13:44;;;;;;;26.92;19.67;;;4.40;91.20;;;;;;4935683;29;20035;-88
2021/01/06 10:16:21;;;;;;;31.73;20.40;;;4.40;91.20;;;;;;4951138;29;20031;-88
2021/01/06 10:19:01;;;;;;;28.27;19.42;;;4.40;91.10;;;;;;4951169;29;20486;-89
2021/01/06 10:21:33;;;;;;;35.33;20.83;;;4.40;91.10;;;;;;4951364;29;20031;-87
2021/01/06 10:24:31;;;;;;;29.33;18.85;;;4.40;91.20;;;;;;4951302;28;20090;-88
2021/01/06 10:27:06;;;;;;;28.27;19.27;;;4.40;91.30;;;;;;4936106;29;20507;-88
2021/01/06 10:29:33;;;;;;;31.13;19.42;;;4.40;91.30;;;;;;4951085;28;20066;-90
2021/01/06 10:32:10;;;;;;;32.13;19.75;;;4.50;90.90;;;;;;4938067;28;20047;-88
2021/01/06 10:34:42;;;;;;;29.08;18.98;;;4.60;90.80;;;;;;4951621;29;20118;-88
2021/01/06 10:37:29;;;;;;;29.60;19.95;;;4.60;90.40;;;;;;4950882;29;20090;-88
2021/01/06 10:40:14;;;;;;;29.75;19.25;;;4.60;90.60;;;;;;4950360;29;20134;-90
2021/01/06 10:42:41;;;;;;;33.15;20.92;;;4.60;90.80;;;;;;4951011;29;20096;-88
2021/01/06 10:45:09;;;;;;;27.63;18.92;;;4.60;90.50;;;;;;4979339;28;20117;-88
2021/01/06 10:47:34;;;;;;;27.70;20.75;;;4.60;90.70;;;;;;4987705;28;20041;-87
2021/01/06 10:50:15;;;;;;;30.23;20.73;;;4.60;90.80;;;;;;4988394;28;20022;-89
2021/01/06 10:52:59;;;;;;;28.00;18.67;;;4.60;90.80;;;;;;4990694;28;20038;-89
2021/01/06 10:55:40;;;;;;;25.17;18.00;;;4.60;90.70;;;;;;4991161;28;20391;-88
2021/01/06 10:58:05;;;;;;;;;;;4.60;90.90;;;;;;4989937;28;20145;-89
2021/01/06 11:00:51;;;;;;;27.00;18.70;;;4.60;90.90;;;;;;4972667;28;20219;-89
2021/01/06 11:03:26;;;;;;;28.73;17.42;;;4.70;90.60;;;;;;4990499;28;20090;-88
2021/01/06 11:05:51;;;;;;;27.67;17.55;;;4.70;90.70;;;;;;4990096;28;20061;-88
2021/01/06 11:08:35;;;;;;;26.23;18.17;;;4.80;90.70;;;;;;4988802;28;20026;-87
2021/01/06 11:11:39;;;;;;;27.38;18.77;;;4.80;90.40;;;;;;4989790;28;20031;-88
2021/01/06 11:14:30;;;;;;;25.90;17.20;;;4.80;90.50;;;;;;4931054;29;20123;-88
2021/01/06 11:17:17;;;;;;;25.38;18.05;;;4.80;90.50;;;;;;4904974;29;20044;-88
2021/01/06 11:19:53;;;;;;;27.80;17.92;;;4.80;90.10;;;;;;4929047;29;20075;-89
2021/01/06 11:22:30;;;;;;;28.40;18.20;;;4.90;89.90;;;;;;4930254;29;20464;-89
2021/01/06 11:25:28;;;;;;;24.13;17.15;;;4.80;90.00;;;;;;4932883;29;20046;-88
2021/01/06 11:27:56;;;;;;;26.95;18.13;;;4.80;89.40;;;;;;4925535;29;20040;-89
2021/01/06 11:30:31;;;;;;;28.52;18.85;;;4.90;89.20;;;;;;4948676;29;20050;-88
2021/01/06 11:33:11;;;;;;;31.20;20.65;;;4.80;90.20;;;;;;4936820;29;20035;-89
2021/01/06 11:35:52;;;;;;;27.87;20.07;;;4.70;90.20;;;;;;4933600;29;20447;-88
2021/01/06 11:38:39;;;;;;;28.45;19.40;;;4.70;90.50;;;;;;4931598;29;20287;-88
2021/01/06 11:41:09;;;;;;;27.38;18.08;;;4.70;90.50;;;;;;4933017;29;20028;-88
2021/01/06 11:44:05;;;;;;;27.85;18.73;;;4.70;90.70;;;;;;4932794;29;20070;-87
2021/01/06 11:46:52;;;;;;;26.52;17.95;;;4.80;90.60;;;;;;4934238;29;20214;-88
2021/01/06 11:49:31;;;;;;;28.08;19.42;;;4.70;90.60;;;;;;4933929;28;20392;-89
2021/01/06 11:52:09;;;;;;;28.10;18.08;;;4.80;90.60;;;;;;4978565;28;20034;-88
2021/01/06 11:54:37;;;;;;;26.63;19.52;;;4.80;90.10;;;;;;4982489;28;20027;-88
2021/01/06 11:57:12;;;;;;;29.70;20.73;;;4.80;90.40;;;;;;4992900;28;20035;-88
2021/01/06 11:59:47;;;;;;;28.65;19.00;;;4.80;90.50;;;;;;4992852;28;20038;-88
2021/01/06 12:02:28;;;;;;;27.35;18.25;;;4.80;90.60;;;;;;4988268;28;20468;-88
2021/01/06 12:05:31;;;;;;;29.25;19.38;;;4.90;90.20;;;;;;4990871;28;20065;-88
2021/01/06 12:08:14;;;;;;;28.83;19.67;;;4.90;90.20;;;;;;4986749;28;20039;-89
2021/01/06 12:10:51;;;;;;;30.75;18.55;;;4.90;90.00;;;;;;4990531;28;20033;-89
2021/01/06 12:13:35;;;;;;;26.50;17.27;;;4.90;90.00;;;;;;4974263;28;20066;-89
2021/01/06 12:16:34;;;;;;;25.80;18.42;;;4.90;90.00;;;;;;4989258;28;20390;-87
2021/01/06 12:19:22;;;;;;;24.75;16.58;;;4.90;90.00;;;;;;4991614;28;20026;-87
2021/01/06 12:22:09;;;;;;;28.85;18.23;;;4.90;89.80;;;;;;4978824;28;20054;-87
2021/01/06 12:24:34;;;;;;;29.65;18.35;;;4.80;89.60;;;;;;4974532;28;20655;-88
2021/01/06 12:27:08;;;;;;;26.55;17.15;;;4.80;90.20;;;;;;4998207;28;20074;-88
2021/01/06 12:29:45;;;;;;;26.50;16.55;;;4.70;90.20;;;;;;4993255;28;20030;-89
2021/01/06 12:32:18;;;;;;;26.08;17.50;;;4.80;90.40;;;;;;4992134;28;20043;-88
2021/01/06 12:34:45;;;;;;;24.45;16.63;;;4.80;90.30;;;;;;4992575;28;20029;-89
2021/01/06 12:37:10;;;;;;;23.15;15.68;;;4.80;90.30;;;;;;4989462;28;20031;-89
2021/01/06 12:39:38;;;;;;;22.80;14.98;;;4.70;90.60;;;;;;4992348;28;20049;-88
2021/01/06 12:42:18;;;;;;;22.92;15.07;;;4.70;90.30;;;;;;4994240;28;20490;-88
2021/01/06 12:44:51;;;;;;;28.13;16.20;;;4.80;90.20;;;;;;4993601;28;20026;-88
2021/01/06 12:47:22;;;;;;;19.92;14.13;;;4.80;90.20;;;;;;4973493;28;20513;-89
2021/01/06 12:50:05;;;;;;;22.60;15.38;;;4.80;90.00;;;;;;4990046;28;20038;-89
2021/01/06 12:52:33;;;;;;;21.65;14.75;;;4.70;90.20;;;;;;4992969;28;20040;-89
2021/01/06 12:55:14;;;;;;;23.75;15.32;;;4.70;90.20;;;;;;4991849;28;20064;-88
2021/01/06 12:58:21;;;;;;;25.17;14.70;;;4.70;90.10;;;;;;4992269;28;20486;-88
2021/01/06 13:01:01;;;;;;;24.50;16.20;;;4.70;89.80;;;;;;4976984;28;20128;-90
2021/01/06 13:03:35;;;;;;;20.65;14.48;;;4.60;90.30;;;;;;4973880;28;20045;-88
2021/01/06 13:06:10;;;;;;;25.50;16.05;;;4.70;90.70;;;;;;4975754;28;20023;-89
2021/01/06 13:08:52;;;;;;;23.45;15.57;;;4.70;90.40;;;;;;4988267;28;20093;-89
2021/01/06 13:11:38;;;;;;;25.08;16.35;;;4.80;90.40;;;;;;4974239;28;20402;-88
2021/01/06 13:14:30;;;;;;;23.15;14.43;;;4.70;90.40;;;;;;4974143;28;20042;-88
2021/01/06 13:17:13;;;;;;;25.67;15.02;;;4.70;90.80;;;;;;4992826;28;20034;-90
2021/01/06 13:19:59;;;;;;;23.55;15.02;;;4.70;90.70;;;;;;4982797;28;20099;-87
2021/01/06 13:22:33;;;;;;;24.52;15.10;;;4.70;90.80;;;;;;4984387;28;20073;-89
2021/01/06 13:25:07;;;;;;;25.58;15.90;;;4.70;91.10;;;;;;4990760;28;20035;-89